Time;durP1;ratioP1;P1;durP2;ratioP2;P2;SDS_P1;SDS_P2;PMS_P1;PMS_P2;Temp;Humidity;BMP_temperature;BMP_pressure;BME280_temperature;BME280_humidity;BME280_pressure;Samples;Min_cycle;Max_cycle;Signal;HPM_P1;HPM_P2
2022/07/11 00:01:31;;;;;;;4.63;1.48;;;16.20;99.90;;;;;;5032653;28;20199;-73
2022/07/11 00:03:56;;;;;;;5.10;1.25;;;16.10;99.90;;;;;;5032483;28;20227;-73
2022/07/11 00:06:22;;;;;;;7.55;1.90;;;16.20;99.90;;;;;;5050302;28;20214;-71
2022/07/11 00:08:47;;;;;;;3.58;1.50;;;16.20;99.90;;;;;;5050329;28;20192;-72
2022/07/11 00:11:13;;;;;;;9.27;2.10;;;16.20;99.90;;;;;;5032630;28;20214;-70
2022/07/11 00:13:38;;;;;;;6.53;1.88;;;16.10;99.90;;;;;;5051134;28;20227;-71
2022/07/11 00:16:05;;;;;;;5.60;1.27;;;16.10;99.90;;;;;;5054652;28;20210;-72
2022/07/11 00:18:30;;;;;;;7.55;1.60;;;16.10;99.90;;;;;;5053937;28;20226;-72
2022/07/11 00:20:56;;;;;;;4.53;1.45;;;16.00;99.90;;;;;;5055057;28;20629;-72
2022/07/11 00:23:21;;;;;;;5.25;1.25;;;15.90;99.90;;;;;;5036471;28;20222;-72
2022/07/11 00:25:47;;;;;;;7.65;1.75;;;15.80;99.90;;;;;;5054543;28;20672;-71
2022/07/11 00:28:13;;;;;;;2.60;1.55;;;15.70;99.90;;;;;;5054295;28;20211;-72
2022/07/11 00:30:38;;;;;;;6.97;1.88;;;15.60;99.90;;;;;;5054275;28;20720;-70
2022/07/11 00:33:04;;;;;;;7.65;1.95;;;15.60;99.90;;;;;;5054715;28;20584;-73
2022/07/11 00:35:30;;;;;;;6.13;2.00;;;15.50;99.90;;;;;;5053937;28;20215;-72
2022/07/11 00:37:55;;;;;;;6.80;1.60;;;15.50;99.90;;;;;;5036116;28;20218;-72
2022/07/11 00:40:21;;;;;;;3.65;1.40;;;15.40;99.90;;;;;;5053769;28;20249;-70
2022/07/11 00:42:46;;;;;;;11.02;1.70;;;15.30;99.90;;;;;;5053819;28;20302;-72
2022/07/11 00:45:12;;;;;;;7.63;1.58;;;15.30;99.90;;;;;;5054572;28;20176;-72
2022/07/11 00:47:38;;;;;;;11.73;1.60;;;15.30;99.90;;;;;;5053795;28;20261;-71
2022/07/11 00:50:04;;;;;;;7.80;1.35;;;15.20;99.90;;;;;;5053646;28;20230;-72
2022/07/11 00:52:30;;;;;;;5.85;1.67;;;15.20;99.90;;;;;;5035530;28;20302;-72
2022/07/11 00:54:56;;;;;;;7.90;1.90;;;15.20;99.90;;;;;;5053577;28;20350;-71
2022/07/11 00:57:23;;;;;;;5.07;1.52;;;15.10;99.90;;;;;;5053318;28;20207;-72
2022/07/11 00:59:49;;;;;;;3.80;1.40;;;15.10;99.90;;;;;;5036134;28;20172;-72
2022/07/11 01:02:14;;;;;;;5.38;1.23;;;15.10;99.90;;;;;;5053711;28;20211;-72
2022/07/11 01:04:40;;;;;;;3.53;1.50;;;15.00;99.90;;;;;;5053465;28;20219;-71
2022/07/11 01:07:06;;;;;;;7.35;1.83;;;14.90;99.90;;;;;;5053685;28;20207;-72
2022/07/11 01:09:31;;;;;;;6.32;1.63;;;14.90;99.90;;;;;;5053231;28;20183;-72
2022/07/11 01:11:57;;;;;;;6.40;1.40;;;14.80;99.90;;;;;;5053880;28;20160;-72
2022/07/11 01:14:23;;;;;;;4.07;1.30;;;14.80;99.90;;;;;;5053434;28;20290;-72
2022/07/11 01:16:51;;;;;;;5.25;1.50;;;14.70;99.90;;;;;;5053447;28;20678;-73
2022/07/11 01:19:17;;;;;;;7.20;1.50;;;14.70;99.90;;;;;;5052826;28;20261;-72
2022/07/11 01:21:45;;;;;;;7.18;1.90;;;14.70;99.90;;;;;;5053299;28;20208;-72
2022/07/11 01:24:11;;;;;;;5.68;1.55;;;14.70;99.90;;;;;;5053269;28;20676;-72
2022/07/11 01:26:37;;;;;;;7.28;1.30;;;14.70;99.90;;;;;;5035175;28;20218;-71
2022/07/11 01:29:13;;;;;;;6.85;2.00;;;14.70;99.90;;;;;;5052967;28;20208;-69
2022/07/11 01:31:43;;;;;;;7.57;1.80;;;14.60;99.90;;;;;;5052941;28;20219;-70
2022/07/11 01:34:09;;;;;;;7.80;1.70;;;14.70;99.90;;;;;;5053292;28;20241;-72
2022/07/11 01:36:35;;;;;;;3.47;1.30;;;14.70;99.90;;;;;;5034866;28;20180;-71
2022/07/11 01:39:01;;;;;;;6.45;1.60;;;14.60;99.90;;;;;;5052946;28;20179;-72
2022/07/11 01:41:26;;;;;;;7.68;1.52;;;14.60;99.90;;;;;;5034826;28;20214;-72
2022/07/11 01:43:52;;;;;;;6.18;1.75;;;14.60;99.90;;;;;;5053041;28;20212;-72
2022/07/11 01:46:19;;;;;;;7.20;1.67;;;14.50;99.90;;;;;;5034925;28;20709;-72
2022/07/11 01:48:45;;;;;;;7.00;1.73;;;14.50;99.90;;;;;;5052265;28;20685;-72
2022/07/11 01:51:11;;;;;;;3.53;1.45;;;14.40;99.90;;;;;;5053278;28;20186;-72
2022/07/11 01:53:36;;;;;;;5.85;1.63;;;14.40;99.90;;;;;;5052524;28;20208;-71
2022/07/11 01:56:02;;;;;;;6.43;1.73;;;14.30;99.90;;;;;;5052574;28;20676;-72
2022/07/11 01:58:30;;;;;;;6.60;1.63;;;14.20;99.90;;;;;;5044462;23;20239;-74
2022/07/11 02:00:56;;;;;;;6.45;1.90;;;14.20;99.90;;;;;;5014942;28;20207;-74
2022/07/11 02:03:22;;;;;;;7.20;1.85;;;14.20;99.90;;;;;;5046045;28;20251;-76
2022/07/11 02:05:48;;;;;;;5.63;1.77;;;14.20;99.90;;;;;;5052940;28;20664;-74
2022/07/11 02:08:13;;;;;;;7.30;2.05;;;14.30;99.90;;;;;;5033860;28;20239;-74
2022/07/11 02:10:41;;;;;;;9.50;2.00;;;14.20;99.90;;;;;;5032607;28;20255;-74
2022/07/11 02:13:07;;;;;;;4.75;1.33;;;14.20;99.90;;;;;;5032800;28;20204;-74
2022/07/11 02:15:32;;;;;;;6.07;1.98;;;14.20;99.90;;;;;;5040051;28;20180;-75
2022/07/11 02:17:58;;;;;;;8.48;2.08;;;14.20;99.90;;;;;;5051318;28;20227;-75
2022/07/11 02:20:24;;;;;;;5.57;2.30;;;14.20;99.90;;;;;;5032133;28;20235;-74
2022/07/11 02:22:50;;;;;;;4.25;1.70;;;14.10;99.90;;;;;;5032589;28;20732;-76
2022/07/11 02:25:16;;;;;;;6.72;1.70;;;14.10;99.90;;;;;;5032602;28;20279;-75
2022/07/11 02:27:42;;;;;;;4.32;2.28;;;14.00;99.90;;;;;;5031885;28;20200;-75
2022/07/11 02:30:08;;;;;;;5.65;2.28;;;14.10;99.90;;;;;;5015026;28;20221;-74
2022/07/11 02:32:34;;;;;;;5.78;1.60;;;14.10;99.90;;;;;;5033638;28;20215;-77
2022/07/11 02:35:00;;;;;;;4.63;1.67;;;14.10;99.90;;;;;;5043979;28;20831;-75
2022/07/11 02:37:26;;;;;;;6.97;2.13;;;14.10;99.90;;;;;;5041946;28;20210;-74
2022/07/11 02:39:51;;;;;;;5.10;1.48;;;14.00;99.90;;;;;;5022348;28;20215;-75
2022/07/11 02:42:18;;;;;;;5.32;1.77;;;14.00;99.90;;;;;;5040060;28;20704;-75
2022/07/11 02:44:44;;;;;;;6.13;2.03;;;14.00;99.90;;;;;;5025784;28;20239;-75
2022/07/11 02:47:10;;;;;;;7.25;2.13;;;14.00;99.90;;;;;;5043475;28;20286;-75
2022/07/11 02:49:35;;;;;;;6.43;1.88;;;13.90;99.90;;;;;;5040936;28;20830;-75
2022/07/11 02:52:01;;;;;;;4.60;1.90;;;13.90;99.90;;;;;;5040124;28;20652;-74
2022/07/11 02:54:26;;;;;;;5.50;2.33;;;13.80;99.90;;;;;;5040549;28;20676;-74
2022/07/11 02:56:52;;;;;;;5.40;1.90;;;13.80;99.90;;;;;;5043886;28;20221;-75
2022/07/11 02:59:17;;;;;;;7.50;1.80;;;13.70;99.90;;;;;;5024984;28;20212;-75
2022/07/11 03:01:43;;;;;;;7.65;2.45;;;13.70;99.90;;;;;;5040208;28;20642;-75
2022/07/11 03:04:09;;;;;;;7.63;2.20;;;13.70;99.90;;;;;;5043365;28;20647;-76
2022/07/11 03:06:36;;;;;;;7.15;2.10;;;13.70;99.90;;;;;;5020113;28;20187;-75
2022/07/11 03:09:02;;;;;;;8.77;2.22;;;13.70;99.90;;;;;;5043561;28;20662;-75
2022/07/11 03:11:27;;;;;;;7.78;2.53;;;13.70;99.90;;;;;;5042066;28;20290;-73
2022/07/11 03:13:53;;;;;;;5.97;1.98;;;13.70;99.90;;;;;;5039726;28;20215;-73
2022/07/11 03:16:19;;;;;;;5.07;2.10;;;13.70;99.90;;;;;;5039564;28;20200;-75
2022/07/11 03:18:45;;;;;;;9.45;2.55;;;13.70;99.90;;;;;;5042476;28;20219;-71
2022/07/11 03:21:10;;;;;;;7.72;2.50;;;13.60;99.90;;;;;;5043508;28;20179;-73
2022/07/11 03:23:36;;;;;;;6.97;2.08;;;13.60;99.90;;;;;;5040688;28;20560;-72
2022/07/11 03:26:03;;;;;;;9.27;2.08;;;13.60;99.90;;;;;;5039994;28;20307;-74
2022/07/11 03:28:28;;;;;;;5.05;2.20;;;13.60;99.90;;;;;;5021911;28;20290;-75
2022/07/11 03:30:54;;;;;;;3.67;2.03;;;13.60;99.90;;;;;;5042529;28;20295;-78
2022/07/11 03:33:20;;;;;;;8.57;2.20;;;13.60;99.90;;;;;;5030047;28;20272;-78
2022/07/11 03:35:46;;;;;;;6.90;2.33;;;13.70;99.90;;;;;;5021982;28;20616;-76
2022/07/11 03:38:13;;;;;;;5.95;2.30;;;13.80;99.90;;;;;;5039123;28;20216;-75
2022/07/11 03:40:39;;;;;;;5.32;1.88;;;14.40;99.90;;;;;;5041703;28;20212;-74
2022/07/11 03:43:04;;;;;;;6.82;1.95;;;14.60;99.90;;;;;;5042307;28;20293;-76
2022/07/11 03:45:30;;;;;;;9.85;1.80;;;15.60;99.90;;;;;;5041021;28;20827;-75
2022/07/11 03:47:56;;;;;;;6.40;1.83;;;16.10;99.90;;;;;;5039185;28;20612;-75
2022/07/11 03:50:21;;;;;;;9.30;2.65;;;17.00;99.90;;;;;;5038679;28;20204;-76
2022/07/11 03:52:47;;;;;;;6.22;3.13;;;17.90;99.90;;;;;;5042573;28;20249;-75
2022/07/11 03:55:13;;;;;;;8.15;2.38;;;18.70;99.90;;;;;;5042483;28;20210;-75
2022/07/11 03:57:38;;;;;;;5.65;2.00;;;19.70;99.90;;;;;;5039296;28;20204;-75
2022/07/11 04:00:07;;;;;;;5.70;2.30;;;20.30;99.90;;;;;;5039115;28;20638;-76
2022/07/11 04:02:33;;;;;;;11.02;2.30;;;21.00;99.90;;;;;;5043997;28;20219;-76
2022/07/11 04:04:59;;;;;;;8.02;2.20;;;21.20;99.90;;;;;;5038948;28;20690;-75
2022/07/11 04:07:25;;;;;;;6.60;1.92;;;21.10;99.90;;;;;;5041941;28;20286;-73
2022/07/11 04:09:50;;;;;;;6.65;2.20;;;21.00;99.90;;;;;;5038796;28;20204;-75
2022/07/11 04:12:18;;;;;;;4.82;1.92;;;21.90;99.90;;;;;;5038676;28;20259;-74
2022/07/11 04:14:44;;;;;;;6.45;2.47;;;22.20;99.90;;;;;;5024294;28;20172;-76
2022/07/11 04:17:09;;;;;;;6.30;1.85;;;23.10;99.90;;;;;;5042280;28;20214;-76
2022/07/11 04:19:35;;;;;;;3.38;1.85;;;23.50;99.90;;;;;;5021673;28;20708;-75
2022/07/11 04:22:00;;;;;;;6.97;2.17;;;24.10;99.90;;;;;;5039546;28;20232;-76
2022/07/11 04:24:26;;;;;;;6.57;2.10;;;24.60;99.90;;;;;;5039853;28;20196;-76
2022/07/11 04:26:52;;;;;;;6.18;1.90;;;24.90;99.90;;;;;;5043052;28;20264;-78
2022/07/11 04:29:18;;;;;;;5.45;2.10;;;25.10;99.90;;;;;;5041741;28;20211;-76
2022/07/11 04:31:43;;;;;;;5.50;1.63;;;25.70;99.90;;;;;;5039791;28;20204;-76
2022/07/11 04:34:09;;;;;;;5.45;1.50;;;26.00;99.90;;;;;;5042622;28;20687;-76
2022/07/11 04:36:34;;;;;;;3.58;1.63;;;26.10;99.90;;;;;;5022600;28;20211;-76
2022/07/11 04:39:00;;;;;;;5.78;1.90;;;25.80;99.90;;;;;;5039495;28;20275;-74
2022/07/11 04:41:25;;;;;;;6.68;1.75;;;26.40;99.90;;;;;;5033618;28;20211;-76
2022/07/11 04:43:51;;;;;;;4.82;1.80;;;26.40;99.90;;;;;;5030688;28;20307;-76
2022/07/11 04:46:17;;;;;;;5.25;1.85;;;26.70;99.90;;;;;;5030157;28;20204;-74
2022/07/11 04:48:42;;;;;;;7.07;2.83;;;26.80;99.90;;;;;;5029707;28;20711;-76
2022/07/11 04:51:08;;;;;;;5.55;2.05;;;26.90;99.90;;;;;;5030819;28;20173;-76
2022/07/11 04:53:34;;;;;;;5.53;1.65;;;27.00;99.90;;;;;;5012421;28;20570;-76
2022/07/11 04:55:59;;;;;;;8.27;1.90;;;27.00;99.90;;;;;;5030166;28;20212;-77
2022/07/11 04:58:25;;;;;;;4.68;2.00;;;27.50;99.90;;;;;;5029561;28;20884;-76
2022/07/11 05:00:51;;;;;;;5.60;1.60;;;27.70;99.90;;;;;;5033096;28;20204;-76
2022/07/11 05:03:19;;;;;;;9.55;2.10;;;27.90;99.90;;;;;;5034026;28;20239;-76
2022/07/11 05:05:45;;;;;;;8.02;2.85;;;28.00;99.90;;;;;;5034223;28;20186;-73
2022/07/11 05:08:11;;;;;;;5.68;1.77;;;28.30;99.90;;;;;;5053368;28;20199;-77
2022/07/11 05:10:37;;;;;;;5.03;1.67;;;28.40;99.90;;;;;;5031866;28;20238;-75
2022/07/11 05:13:03;;;;;;;6.47;1.90;;;28.90;99.20;;;;;;5015871;28;20200;-76
2022/07/11 05:15:29;;;;;;;7.07;2.17;;;28.90;98.60;;;;;;5015921;28;20264;-73
2022/07/11 05:17:54;;;;;;;4.28;1.90;;;29.20;97.60;;;;;;5034003;28;20287;-75
2022/07/11 05:20:20;;;;;;;8.20;1.98;;;29.50;96.90;;;;;;5015741;28;20208;-75
2022/07/11 05:22:46;;;;;;;7.07;1.85;;;28.90;96.50;;;;;;5032996;28;20212;-73
2022/07/11 05:25:12;;;;;;;4.90;1.98;;;28.90;97.10;;;;;;5015725;28;20238;-74
2022/07/11 05:27:37;;;;;;;5.45;1.77;;;28.90;96.80;;;;;;5015527;28;20761;-73
2022/07/11 05:30:03;;;;;;;3.67;1.88;;;29.10;97.00;;;;;;5015868;28;20247;-73
2022/07/11 05:32:29;;;;;;;8.10;1.60;;;29.40;95.70;;;;;;5033169;28;20212;-75
2022/07/11 05:34:58;;;;;;;5.25;1.92;;;29.30;95.90;;;;;;5015708;28;20337;-75
2022/07/11 05:37:24;;;;;;;4.13;2.03;;;29.30;95.70;;;;;;5033002;28;20201;-74
2022/07/11 05:39:50;;;;;;;6.45;2.40;;;28.90;95.50;;;;;;5032865;28;20238;-73
2022/07/11 05:42:16;;;;;;;5.80;1.98;;;28.90;95.80;;;;;;5033507;28;20653;-74
2022/07/11 05:44:42;;;;;;;5.47;2.17;;;29.30;95.70;;;;;;5033469;28;20173;-74
2022/07/11 05:47:07;;;;;;;6.30;2.00;;;29.20;95.40;;;;;;5033147;28;20685;-76
2022/07/11 05:49:33;;;;;;;5.03;1.65;;;29.10;95.00;;;;;;5014683;28;20602;-74
2022/07/11 05:51:59;;;;;;;9.18;2.03;;;29.00;95.30;;;;;;5015109;28;20679;-73
2022/07/11 05:54:25;;;;;;;6.03;1.80;;;29.00;95.20;;;;;;5032492;28;20238;-74
2022/07/11 05:56:50;;;;;;;6.40;1.88;;;29.40;94.90;;;;;;5033280;28;20641;-75
2022/07/11 05:59:16;;;;;;;2.72;1.73;;;29.40;94.90;;;;;;5032342;28;20223;-74
2022/07/11 06:01:42;;;;;;;9.77;1.88;;;29.60;94.40;;;;;;5032892;28;20210;-73
2022/07/11 06:04:07;;;;;;;5.88;1.92;;;29.90;94.10;;;;;;5032510;28;20212;-75
2022/07/11 06:06:33;;;;;;;4.57;1.83;;;29.50;93.90;;;;;;5021445;28;20179;-75
2022/07/11 06:08:59;;;;;;;5.38;2.13;;;30.10;93.60;;;;;;5052627;28;20218;-75
2022/07/11 06:11:24;;;;;;;7.65;2.08;;;29.90;92.90;;;;;;5040725;28;20282;-75
2022/07/11 06:13:50;;;;;;;5.20;1.80;;;29.40;93.70;;;;;;5032660;28;20243;-75
2022/07/11 06:16:17;;;;;;;7.10;1.75;;;29.90;93.20;;;;;;5032777;28;20204;-75
2022/07/11 06:18:43;;;;;;;5.35;2.15;;;29.90;92.90;;;;;;5032157;28;20218;-75
2022/07/11 06:21:09;;;;;;;5.70;2.20;;;30.10;92.80;;;;;;5033025;28;20180;-74
2022/07/11 06:23:34;;;;;;;5.93;2.17;;;29.80;92.60;;;;;;5032093;28;20637;-74
2022/07/11 06:26:01;;;;;;;5.65;1.88;;;30.30;92.80;;;;;;5032482;28;20196;-75
2022/07/11 06:28:27;;;;;;;5.15;2.03;;;30.00;92.40;;;;;;5032051;28;20212;-75
2022/07/11 06:30:52;;;;;;;8.73;2.13;;;30.10;92.70;;;;;;5032297;28;20528;-74
2022/07/11 06:33:19;;;;;;;6.10;1.95;;;30.40;92.40;;;;;;5032148;28;20262;-75
2022/07/11 06:35:46;;;;;;;7.97;1.90;;;30.80;92.20;;;;;;5032946;28;20238;-75
2022/07/11 06:38:13;;;;;;;5.80;1.70;;;31.00;91.90;;;;;;5031882;28;20212;-75
2022/07/11 06:40:39;;;;;;;7.03;2.00;;;31.30;91.20;;;;;;5032098;28;20214;-74
2022/07/11 06:43:05;;;;;;;5.57;1.90;;;30.80;91.10;;;;;;5014207;28;20204;-74
2022/07/11 06:45:31;;;;;;;6.47;2.03;;;30.90;91.20;;;;;;5013962;28;20184;-76
2022/07/11 06:47:56;;;;;;;11.50;2.15;;;30.60;91.50;;;;;;5032317;28;20678;-75
2022/07/11 06:50:22;;;;;;;5.20;1.95;;;30.90;91.50;;;;;;5031385;28;20838;-76
2022/07/11 06:52:48;;;;;;;5.68;2.03;;;30.80;91.30;;;;;;5031978;28;20556;-76
2022/07/11 06:55:14;;;;;;;7.55;2.00;;;30.70;91.40;;;;;;5031786;28;20199;-75
2022/07/11 06:57:40;;;;;;;5.78;2.58;;;30.90;91.20;;;;;;5013731;28;21158;-73
2022/07/11 07:00:09;;;;;;;5.40;1.75;;;31.20;91.50;;;;;;5032189;28;20200;-75
2022/07/11 07:02:35;;;;;;;5.00;1.88;;;30.10;91.40;;;;;;5013922;28;20663;-75
2022/07/11 07:05:01;;;;;;;5.55;2.08;;;30.00;92.50;;;;;;5031573;28;20220;-76
2022/07/11 07:07:27;;;;;;;4.55;1.80;;;30.60;92.50;;;;;;5027418;28;20207;-75
2022/07/11 07:09:54;;;;;;;7.03;2.10;;;31.10;91.60;;;;;;5033148;28;20683;-75
2022/07/11 07:12:23;;;;;;;6.22;2.15;;;31.30;91.00;;;;;;5033557;28;20191;-75
2022/07/11 07:14:49;;;;;;;6.65;1.83;;;31.50;91.20;;;;;;5031890;28;20176;-75
2022/07/11 07:17:15;;;;;;;7.63;2.30;;;32.10;90.70;;;;;;5031335;28;20230;-75
2022/07/11 07:19:41;;;;;;;3.13;1.60;;;32.20;90.00;;;;;;5030810;28;20211;-75
2022/07/11 07:22:08;;;;;;;5.90;1.85;;;33.10;88.00;;;;;;5030919;28;20200;-74
2022/07/11 07:24:34;;;;;;;4.75;2.15;;;33.60;85.20;;;;;;5030876;28;20210;-72
2022/07/11 07:26:59;;;;;;;5.82;2.22;;;33.90;83.90;;;;;;5031869;28;20187;-75
2022/07/11 07:29:26;;;;;;;7.00;1.83;;;33.70;82.90;;;;;;5012934;28;20204;-76
2022/07/11 07:31:52;;;;;;;9.82;2.03;;;31.50;84.90;;;;;;5031040;28;20333;-75
2022/07/11 07:34:19;;;;;;;4.88;1.85;;;30.70;89.60;;;;;;5030925;28;20207;-74
2022/07/11 07:36:44;;;;;;;9.75;2.10;;;30.50;90.50;;;;;;5013439;28;20208;-73
2022/07/11 07:39:10;;;;;;;6.32;2.10;;;30.40;90.50;;;;;;5031126;28;20199;-75
2022/07/11 07:41:36;;;;;;;4.18;1.67;;;30.50;90.00;;;;;;5031036;28;20211;-75
2022/07/11 07:44:02;;;;;;;6.97;1.80;;;29.30;91.60;;;;;;5030865;28;20218;-73
2022/07/11 07:46:27;;;;;;;4.97;2.13;;;29.50;92.30;;;;;;5030560;28;20273;-75
2022/07/11 07:48:53;;;;;;;8.18;1.85;;;29.40;92.30;;;;;;5012929;28;20555;-75
2022/07/11 07:51:19;;;;;;;5.72;2.00;;;29.90;92.10;;;;;;5030945;28;20180;-75
2022/07/11 07:53:44;;;;;;;6.93;1.90;;;30.60;91.30;;;;;;5031468;28;20172;-75
2022/07/11 07:56:10;;;;;;;4.45;1.58;;;31.60;90.50;;;;;;5030480;28;20604;-74
2022/07/11 07:58:36;;;;;;;6.35;1.80;;;31.80;87.60;;;;;;5036225;22;20291;-69
2022/07/11 08:03:45;;;;;;;7.35;2.00;;;30.70;89.80;;;;;;5045457;28;20222;-70
2022/07/11 08:06:11;;;;;;;5.60;1.80;;;31.00;90.00;;;;;;5033211;28;20179;-71
2022/07/11 08:08:36;;;;;;;4.55;1.98;;;31.70;88.80;;;;;;5046866;28;20272;-70
2022/07/11 08:11:02;;;;;;;7.93;2.03;;;32.20;88.00;;;;;;5048875;28;20213;-70
2022/07/11 08:13:28;;;;;;;5.47;1.92;;;32.10;86.50;;;;;;5050425;28;20646;-70
2022/07/11 08:15:56;;;;;;;6.35;1.95;;;32.00;87.80;;;;;;5047127;28;20261;-71
2022/07/11 08:18:21;;;;;;;7.25;2.03;;;31.70;87.90;;;;;;5046951;28;20533;-70
2022/07/11 08:20:47;;;;;;;4.38;1.85;;;31.80;87.20;;;;;;5051178;28;20821;-71
2022/07/11 08:23:12;;;;;;;4.78;1.83;;;31.20;88.20;;;;;;5050706;28;20207;-70
2022/07/11 08:25:39;;;;;;;4.68;1.70;;;30.80;89.10;;;;;;5050008;28;20211;-67
2022/07/11 08:28:05;;;;;;;4.72;1.67;;;30.90;89.70;;;;;;5050361;28;20207;-70
2022/07/11 08:30:31;;;;;;;5.47;1.60;;;31.30;89.10;;;;;;5050053;28;20206;-69
2022/07/11 08:32:56;;;;;;;6.75;1.83;;;31.80;87.90;;;;;;5029635;28;20179;-70
2022/07/11 08:35:22;;;;;;;3.40;1.77;;;31.50;87.90;;;;;;5048697;28;20214;-71
2022/07/11 08:37:48;;;;;;;4.25;1.50;;;31.20;89.30;;;;;;5054275;28;20213;-70
2022/07/11 08:40:13;;;;;;;6.32;1.92;;;30.70;88.50;;;;;;5053180;28;20226;-71
2022/07/11 08:42:45;;;;;;;6.55;1.63;;;29.20;91.50;;;;;;5052872;28;20758;-70
2022/07/11 08:45:12;;;;;;;7.13;2.20;;;30.20;91.60;;;;;;5036639;28;20180;-71
2022/07/11 08:47:39;;;;;;;4.82;1.70;;;31.10;90.70;;;;;;5053928;28;20752;-68
2022/07/11 08:50:05;;;;;;;6.40;1.77;;;31.30;90.10;;;;;;5053791;28;20207;-70
2022/07/11 08:52:32;;;;;;;6.05;1.95;;;31.20;89.30;;;;;;5053640;28;20208;-71
2022/07/11 08:54:57;;;;;;;5.95;1.80;;;31.40;88.60;;;;;;5053890;28;20317;-71
2022/07/11 08:57:24;;;;;;;5.57;1.73;;;31.20;88.90;;;;;;5053505;28;20656;-71
2022/07/11 08:59:55;;;;;;;5.22;1.90;;;31.20;90.30;;;;;;5036072;28;20203;-72
2022/07/11 09:02:22;;;;;;;4.38;1.63;;;30.40;90.10;;;;;;5053718;28;20204;-71
2022/07/11 09:04:48;;;;;;;3.78;2.00;;;29.10;91.70;;;;;;5053439;28;20212;-72
2022/07/11 09:07:14;;;;;;;3.90;2.42;;;28.80;92.80;;;;;;5048976;28;20204;-72
2022/07/11 09:09:40;;;;;;;5.13;1.85;;;29.20;92.20;;;;;;5052278;28;20211;-70
2022/07/11 09:12:16;;;;;;;3.65;1.60;;;28.20;93.00;;;;;;5052316;28;20258;-71
2022/07/11 09:14:49;;;;;;;5.53;1.38;;;28.10;94.00;;;;;;5053719;28;20436;-71
2022/07/11 09:17:15;;;;;;;7.32;2.13;;;29.10;93.50;;;;;;5053472;28;20659;-71
2022/07/11 09:19:41;;;;;;;5.22;1.80;;;30.00;91.90;;;;;;5052933;28;20243;-70
2022/07/11 09:25:41;;;;;;;7.20;1.38;;;29.70;92.10;;;;;;5053972;28;20317;-71
2022/07/11 09:28:03;;;;;;;5.05;1.90;;;29.10;91.00;;;;;;5031976;28;20219;-70
2022/07/11 09:30:31;;;;;;;2.15;1.23;;;29.30;91.60;;;;;;5052851;28;20200;-71
2022/07/11 09:33:04;;;;;;;3.65;1.52;;;29.40;91.80;;;;;;5053751;28;20168;-70
2022/07/11 09:35:33;;;;;;;5.38;1.77;;;28.70;91.90;;;;;;5052950;28;20208;-71
2022/07/11 09:38:01;;;;;;;4.10;1.50;;;27.50;94.40;;;;;;5035000;28;20268;-72
2022/07/11 09:40:27;;;;;;;3.92;1.30;;;27.40;94.30;;;;;;5050871;28;20208;-72
2022/07/11 09:42:57;;;;;;;4.78;1.42;;;27.30;94.60;;;;;;5034863;28;20913;-71
2022/07/11 09:45:26;;;;;;;5.68;2.25;;;28.10;94.70;;;;;;5052514;28;20183;-71
2022/07/11 09:47:56;;;;;;;8.98;4.55;;;28.60;93.60;;;;;;5035261;28;20171;-71
2022/07/11 09:50:24;;;;;;;4.32;1.63;;;27.90;94.30;;;;;;5052338;28;20215;-72
2022/07/11 09:53:01;;;;;;;2.78;1.30;;;27.90;94.70;;;;;;5034688;28;20210;-71
2022/07/11 09:55:27;;;;;;;3.60;1.23;;;28.60;93.80;;;;;;5052555;28;20199;-71
2022/07/11 09:57:53;;;;;;;3.55;1.35;;;28.70;92.60;;;;;;5052814;28;20203;-71
2022/07/11 10:00:19;;;;;;;4.07;1.80;;;28.90;93.20;;;;;;5052730;28;20684;-72
2022/07/11 10:02:45;;;;;;;5.43;1.60;;;28.00;93.40;;;;;;5053117;28;20196;-70
2022/07/11 10:05:11;;;;;;;3.30;1.30;;;26.90;94.80;;;;;;5052820;28;20763;-71
2022/07/11 10:07:37;;;;;;;3.13;1.30;;;26.30;96.00;;;;;;5029134;28;20208;-71
2022/07/11 10:10:05;;;;;;;2.95;1.40;;;26.10;96.70;;;;;;5052461;28;20290;-71
2022/07/11 10:12:34;;;;;;;4.53;1.30;;;26.70;96.80;;;;;;5050815;28;20194;-71
2022/07/11 10:15:06;;;;;;;5.03;1.27;;;27.40;96.00;;;;;;5053290;28;20176;-71
2022/07/11 10:17:58;;;;;;;3.40;1.00;;;27.90;94.80;;;;;;5052489;28;20577;-71
2022/07/11 10:20:38;;;;;;;6.85;2.67;;;26.90;94.20;;;;;;5052074;28;20214;-71
2022/07/11 10:23:16;;;;;;;8.00;4.30;;;27.50;94.20;;;;;;5052424;28;20230;-71
2022/07/11 10:25:57;;;;;;;3.13;1.40;;;28.00;93.90;;;;;;5052609;28;20604;-71
2022/07/11 10:28:30;;;;;;;4.55;1.30;;;28.00;94.10;;;;;;5051867;28;20688;-71
2022/07/11 10:30:59;;;;;;;6.10;1.67;;;26.90;95.20;;;;;;5034451;28;20206;-71
2022/07/11 10:33:25;;;;;;;1.67;1.00;;;27.50;95.40;;;;;;5034241;28;20271;-70
2022/07/11 10:35:52;;;;;;;3.33;1.27;;;26.10;93.60;;;;;;5052759;28;20215;-72
2022/07/11 10:38:18;;;;;;;5.13;3.67;;;26.70;94.30;;;;;;5051790;28;20203;-71
2022/07/11 10:40:45;;;;;;;5.03;1.80;;;26.50;93.80;;;;;;5050338;28;20204;-72
2022/07/11 10:43:11;;;;;;;2.20;0.90;;;26.40;94.10;;;;;;5033873;28;20250;-72
2022/07/11 10:45:56;;;;;;;4.25;1.20;;;25.90;95.30;;;;;;5052106;28;20212;-71
2022/07/11 10:48:23;;;;;;;3.40;1.10;;;26.10;95.80;;;;;;5034142;28;20276;-70
2022/07/11 10:50:58;;;;;;;4.00;0.75;;;26.60;95.40;;;;;;5052827;28;20175;-72
2022/07/11 10:53:25;;;;;;;5.55;1.30;;;26.50;95.30;;;;;;5051655;28;20282;-72
2022/07/11 10:56:13;;;;;;;2.53;1.15;;;26.80;95.30;;;;;;5043499;28;20213;-72
2022/07/11 10:58:43;;;;;;;2.13;0.75;;;27.10;94.80;;;;;;5050553;28;20222;-70
2022/07/11 11:01:16;;;;;;;1.88;0.85;;;26.10;95.10;;;;;;5052097;28;20563;-72
2022/07/11 11:03:43;;;;;;;4.35;0.95;;;26.40;95.20;;;;;;5033552;28;20361;-71
2022/07/11 11:06:10;;;;;;;2.65;0.85;;;26.80;94.10;;;;;;5054372;28;20172;-72
2022/07/11 11:08:40;;;;;;;1.05;0.68;;;26.40;93.20;;;;;;5046300;28;20208;-72
2022/07/11 11:11:24;;;;;;;2.72;1.33;;;26.50;94.00;;;;;;5049954;28;20211;-71
2022/07/11 11:14:14;;;;;;;4.35;1.02;;;26.70;93.70;;;;;;5018553;28;20767;-70
2022/07/11 11:16:40;;;;;;;3.45;1.00;;;26.60;94.20;;;;;;5051348;28;20230;-71
2022/07/11 11:19:06;;;;;;;1.58;0.90;;;26.30;94.50;;;;;;5050868;28;20231;-72
2022/07/11 11:21:31;;;;;;;5.40;1.17;;;26.40;94.80;;;;;;5051119;28;20188;-72
2022/07/11 11:24:02;;;;;;;4.05;1.30;;;26.90;94.90;;;;;;5033791;28;20620;-70
2022/07/11 11:26:50;;;;;;;2.50;0.80;;;26.90;94.10;;;;;;5051024;28;20307;-72
2022/07/11 11:29:28;;;;;;;4.65;1.08;;;25.90;92.90;;;;;;5032968;28;20227;-72
2022/07/11 11:31:56;;;;;;;3.72;1.10;;;25.80;94.00;;;;;;5019291;28;20262;-71
2022/07/11 11:34:22;;;;;;;3.65;1.23;;;26.00;94.00;;;;;;5050993;28;20207;-72
2022/07/11 11:36:53;;;;;;;3.17;0.98;;;26.00;93.90;;;;;;5051264;28;20206;-72
2022/07/11 11:39:24;;;;;;;2.53;0.90;;;25.90;94.20;;;;;;5031822;28;20199;-72
2022/07/11 11:41:49;;;;;;;3.30;1.90;;;25.90;94.70;;;;;;5037994;28;20229;-73
2022/07/11 11:44:15;;;;;;;3.08;1.02;;;26.40;94.00;;;;;;5050884;28;20215;-72
2022/07/11 11:46:40;;;;;;;2.25;1.00;;;26.50;93.00;;;;;;5050867;28;20215;-71
2022/07/11 11:49:06;;;;;;;2.58;0.98;;;26.70;92.70;;;;;;5050516;28;20215;-72
2022/07/11 11:51:32;;;;;;;1.65;1.00;;;26.30;92.70;;;;;;5050807;28;20722;-73
2022/07/11 11:54:00;;;;;;;2.63;0.90;;;25.80;93.30;;;;;;5051387;28;20179;-72
2022/07/11 11:56:34;;;;;;;3.55;0.93;;;25.70;93.20;;;;;;5050685;28;20283;-70
2022/07/11 11:59:10;;;;;;;6.43;0.68;;;25.70;93.50;;;;;;5032435;28;20215;-71
2022/07/11 12:01:39;;;;;;;1.35;0.70;;;26.20;92.50;;;;;;5050735;28;20286;-71
2022/07/11 12:04:07;;;;;;;2.20;1.00;;;26.10;92.40;;;;;;5050822;28;20211;-71
2022/07/11 12:06:42;;;;;;;3.38;0.82;;;25.90;92.70;;;;;;5050602;28;20179;-70
2022/07/11 12:09:15;;;;;;;4.47;1.15;;;26.10;93.20;;;;;;5040604;28;20214;-71
2022/07/11 12:11:46;;;;;;;2.92;0.70;;;26.40;93.30;;;;;;5049095;28;20215;-70
2022/07/11 12:14:13;;;;;;;3.58;0.60;;;26.10;93.40;;;;;;5050485;28;20219;-70
2022/07/11 12:16:46;;;;;;;0.80;0.80;;;25.80;93.60;;;;;;5050450;28;20767;-71
2022/07/11 12:19:17;;;;;;;3.28;0.93;;;25.60;94.00;;;;;;5032375;28;20225;-71
2022/07/11 12:21:51;;;;;;;2.45;1.15;;;25.20;93.70;;;;;;5050055;28;20253;-71
2022/07/11 12:24:22;;;;;;;3.22;0.90;;;25.30;94.70;;;;;;5050586;28;20289;-72
2022/07/11 12:26:49;;;;;;;3.55;1.25;;;25.40;94.80;;;;;;5051095;28;20225;-71
2022/07/11 12:29:23;;;;;;;1.77;0.70;;;25.40;93.70;;;;;;5050129;28;20295;-71
2022/07/11 12:31:50;;;;;;;3.72;0.85;;;25.50;92.50;;;;;;5034826;28;20196;-71
2022/07/11 12:34:18;;;;;;;2.83;1.05;;;25.50;92.40;;;;;;5032359;28;20195;-71
2022/07/11 12:36:45;;;;;;;2.88;1.10;;;25.60;92.80;;;;;;5032316;28;20541;-70
2022/07/11 12:39:28;;;;;;;2.63;0.90;;;25.70;93.00;;;;;;5032555;28;20195;-71
2022/07/11 12:41:55;;;;;;;1.85;1.00;;;25.40;93.50;;;;;;5038613;28;20566;-72
2022/07/11 12:47:11;;;;;;;1.63;0.82;;;25.40;94.10;;;;;;5050300;28;20702;-72
2022/07/11 12:49:39;;;;;;;3.83;1.30;;;25.60;94.00;;;;;;5049803;28;20215;-72
2022/07/11 12:52:05;;;;;;;2.55;0.88;;;25.90;93.80;;;;;;5032479;28;20286;-72
2022/07/11 12:54:33;;;;;;;1.65;0.90;;;26.10;93.80;;;;;;5050049;28;20263;-71